sensor_id;sensor_type;location;lat;lon;timestamp;temperature;humidity
3298;DHT22;1661;53.572;10.174;2023-10-09T00:01:03;13.10;86.70
3298;DHT22;1661;53.572;10.174;2023-10-09T00:03:35;13.20;86.50
3298;DHT22;1661;53.572;10.174;2023-10-09T00:06:05;13.20;86.50
3298;DHT22;1661;53.572;10.174;2023-10-09T00:08:33;13.30;86.60
3298;DHT22;1661;53.572;10.174;2023-10-09T00:11:02;13.30;86.60
3298;DHT22;1661;53.572;10.174;2023-10-09T00:13:42;13.30;86.40
3298;DHT22;1661;53.572;10.174;2023-10-09T00:16:16;13.30;86.20
3298;DHT22;1661;53.572;10.174;2023-10-09T00:18:48;13.30;85.80
3298;DHT22;1661;53.572;10.174;2023-10-09T00:21:16;13.20;85.90
3298;DHT22;1661;53.572;10.174;2023-10-09T00:23:46;13.10;85.90
3298;DHT22;1661;53.572;10.174;2023-10-09T00:26:18;13.10;86.00
3298;DHT22;1661;53.572;10.174;2023-10-09T00:28:46;13.00;86.20
3298;DHT22;1661;53.572;10.174;2023-10-09T00:31:16;13.00;86.40
3298;DHT22;1661;53.572;10.174;2023-10-09T00:33:53;12.90;86.60
3298;DHT22;1661;53.572;10.174;2023-10-09T00:36:22;12.80;86.80
3298;DHT22;1661;53.572;10.174;2023-10-09T00:38:54;12.70;87.10
3298;DHT22;1661;53.572;10.174;2023-10-09T00:41:22;12.70;87.30
3298;DHT22;1661;53.572;10.174;2023-10-09T00:43:50;12.70;87.40
3298;DHT22;1661;53.572;10.174;2023-10-09T00:46:20;12.70;87.30
3298;DHT22;1661;53.572;10.174;2023-10-09T00:48:53;12.70;87.30
3298;DHT22;1661;53.572;10.174;2023-10-09T00:51:23;12.70;87.20
3298;DHT22;1661;53.572;10.174;2023-10-09T00:53:53;12.70;87.30
3298;DHT22;1661;53.572;10.174;2023-10-09T00:56:21;12.70;87.30
3298;DHT22;1661;53.572;10.174;2023-10-09T00:58:57;12.70;87.10
3298;DHT22;1661;53.572;10.174;2023-10-09T01:01:34;12.80;87.10
3298;DHT22;1661;53.572;10.174;2023-10-09T01:04:02;12.80;86.80
3298;DHT22;1661;53.572;10.174;2023-10-09T01:06:43;12.70;86.60
3298;DHT22;1661;53.572;10.174;2023-10-09T01:09:11;12.70;86.60
3298;DHT22;1661;53.572;10.174;2023-10-09T01:11:39;12.70;86.60
3298;DHT22;1661;53.572;10.174;2023-10-09T01:14:15;12.70;86.60
3298;DHT22;1661;53.572;10.174;2023-10-09T01:16:42;12.70;86.50
3298;DHT22;1661;53.572;10.174;2023-10-09T01:19:10;12.60;86.60
3298;DHT22;1661;53.572;10.174;2023-10-09T01:21:47;12.60;86.70
3298;DHT22;1661;53.572;10.174;2023-10-09T01:24:16;12.60;86.70
3298;DHT22;1661;53.572;10.174;2023-10-09T01:26:46;12.60;86.60
3298;DHT22;1661;53.572;10.174;2023-10-09T01:29:14;12.50;86.70
3298;DHT22;1661;53.572;10.174;2023-10-09T01:31:43;12.50;86.80
3298;DHT22;1661;53.572;10.174;2023-10-09T01:34:18;12.50;86.90
3298;DHT22;1661;53.572;10.174;2023-10-09T01:36:50;12.50;86.90
3298;DHT22;1661;53.572;10.174;2023-10-09T01:39:21;12.50;86.80
3298;DHT22;1661;53.572;10.174;2023-10-09T01:41:49;12.60;86.90
3298;DHT22;1661;53.572;10.174;2023-10-09T01:44:17;12.60;86.70
3298;DHT22;1661;53.572;10.174;2023-10-09T01:46:45;12.60;86.70
3298;DHT22;1661;53.572;10.174;2023-10-09T01:49:12;12.60;86.70
3298;DHT22;1661;53.572;10.174;2023-10-09T01:51:47;12.60;86.60
3298;DHT22;1661;53.572;10.174;2023-10-09T01:54:14;12.60;86.60
3298;DHT22;1661;53.572;10.174;2023-10-09T01:57:00;12.70;86.40
3298;DHT22;1661;53.572;10.174;2023-10-09T01:59:31;12.70;86.40
3298;DHT22;1661;53.572;10.174;2023-10-09T02:01:58;12.70;86.40
3298;DHT22;1661;53.572;10.174;2023-10-09T02:04:26;12.70;86.40
3298;DHT22;1661;53.572;10.174;2023-10-09T02:06:54;12.60;86.30
3298;DHT22;1661;53.572;10.174;2023-10-09T02:09:21;12.60;86.20
3298;DHT22;1661;53.572;10.174;2023-10-09T02:11:56;12.60;86.20
3298;DHT22;1661;53.572;10.174;2023-10-09T02:14:24;12.60;86.20
3298;DHT22;1661;53.572;10.174;2023-10-09T02:16:51;12.60;86.20
3298;DHT22;1661;53.572;10.174;2023-10-09T02:19:33;12.60;86.20
3298;DHT22;1661;53.572;10.174;2023-10-09T02:22:01;12.60;86.20
3298;DHT22;1661;53.572;10.174;2023-10-09T02:24:38;12.60;86.20
3298;DHT22;1661;53.572;10.174;2023-10-09T02:27:23;12.60;86.30
3298;DHT22;1661;53.572;10.174;2023-10-09T02:30:19;12.50;86.20
3298;DHT22;1661;53.572;10.174;2023-10-09T02:32:53;12.50;86.50
3298;DHT22;1661;53.572;10.174;2023-10-09T02:35:32;12.50;86.50
3298;DHT22;1661;53.572;10.174;2023-10-09T02:38:04;12.50;86.50
3298;DHT22;1661;53.572;10.174;2023-10-09T02:40:33;12.50;86.60
3298;DHT22;1661;53.572;10.174;2023-10-09T02:43:07;12.50;86.60
3298;DHT22;1661;53.572;10.174;2023-10-09T02:45:39;12.50;86.50
3298;DHT22;1661;53.572;10.174;2023-10-09T02:48:16;12.50;86.30
3298;DHT22;1661;53.572;10.174;2023-10-09T02:50:45;12.50;86.20
3298;DHT22;1661;53.572;10.174;2023-10-09T02:53:12;12.50;86.20
3298;DHT22;1661;53.572;10.174;2023-10-09T02:55:44;12.40;86.20
3298;DHT22;1661;53.572;10.174;2023-10-09T02:58:27;12.40;86.30
3298;DHT22;1661;53.572;10.174;2023-10-09T03:00:55;12.30;86.50
3298;DHT22;1661;53.572;10.174;2023-10-09T03:03:22;12.30;86.60
3298;DHT22;1661;53.572;10.174;2023-10-09T03:05:52;12.30;86.70
3298;DHT22;1661;53.572;10.174;2023-10-09T03:08:22;12.30;86.80
3298;DHT22;1661;53.572;10.174;2023-10-09T03:10:48;12.30;86.80
3298;DHT22;1661;53.572;10.174;2023-10-09T03:13:15;12.30;87.00
3298;DHT22;1661;53.572;10.174;2023-10-09T03:15:46;12.30;87.10
3298;DHT22;1661;53.572;10.174;2023-10-09T03:18:15;12.30;87.10
3298;DHT22;1661;53.572;10.174;2023-10-09T03:20:42;12.20;87.10
3298;DHT22;1661;53.572;10.174;2023-10-09T03:23:09;12.20;87.10
3298;DHT22;1661;53.572;10.174;2023-10-09T03:25:39;12.20;87.20
3298;DHT22;1661;53.572;10.174;2023-10-09T03:28:11;12.20;87.20
3298;DHT22;1661;53.572;10.174;2023-10-09T03:30:38;12.10;87.30
3298;DHT22;1661;53.572;10.174;2023-10-09T03:33:05;12.10;87.40
3298;DHT22;1661;53.572;10.174;2023-10-09T03:35:33;12.10;87.30
3298;DHT22;1661;53.572;10.174;2023-10-09T03:38:01;12.10;87.20
3298;DHT22;1661;53.572;10.174;2023-10-09T03:40:40;12.10;87.20
3298;DHT22;1661;53.572;10.174;2023-10-09T03:43:08;12.10;87.10
3298;DHT22;1661;53.572;10.174;2023-10-09T03:45:36;12.00;87.20
3298;DHT22;1661;53.572;10.174;2023-10-09T03:48:05;12.00;87.20
3298;DHT22;1661;53.572;10.174;2023-10-09T03:50:42;11.90;87.40
3298;DHT22;1661;53.572;10.174;2023-10-09T03:53:11;11.90;87.40
3298;DHT22;1661;53.572;10.174;2023-10-09T03:55:38;11.90;87.50
3298;DHT22;1661;53.572;10.174;2023-10-09T03:58:05;11.90;87.40
3298;DHT22;1661;53.572;10.174;2023-10-09T04:00:33;11.90;87.40
3298;DHT22;1661;53.572;10.174;2023-10-09T04:03:10;11.80;87.50
3298;DHT22;1661;53.572;10.174;2023-10-09T04:05:41;11.80;87.50
3298;DHT22;1661;53.572;10.174;2023-10-09T04:08:10;11.80;87.50
3298;DHT22;1661;53.572;10.174;2023-10-09T04:10:54;11.80;87.50
3298;DHT22;1661;53.572;10.174;2023-10-09T04:13:27;11.70;87.60
3298;DHT22;1661;53.572;10.174;2023-10-09T04:16:00;11.70;87.90
3298;DHT22;1661;53.572;10.174;2023-10-09T04:18:34;11.60;88.10
3298;DHT22;1661;53.572;10.174;2023-10-09T04:21:05;11.60;88.20
3298;DHT22;1661;53.572;10.174;2023-10-09T04:24:00;11.60;88.30
3298;DHT22;1661;53.572;10.174;2023-10-09T04:26:36;11.60;88.30
3298;DHT22;1661;53.572;10.174;2023-10-09T04:29:05;11.60;88.20
3298;DHT22;1661;53.572;10.174;2023-10-09T04:31:36;11.60;88.00
3298;DHT22;1661;53.572;10.174;2023-10-09T04:34:03;11.60;88.00
3298;DHT22;1661;53.572;10.174;2023-10-09T04:36:48;11.60;88.00
3298;DHT22;1661;53.572;10.174;2023-10-09T04:39:17;11.60;88.00
3298;DHT22;1661;53.572;10.174;2023-10-09T04:41:59;11.50;88.00
3298;DHT22;1661;53.572;10.174;2023-10-09T04:44:40;11.50;88.10
3298;DHT22;1661;53.572;10.174;2023-10-09T04:47:26;11.50;88.10
3298;DHT22;1661;53.572;10.174;2023-10-09T04:50:01;11.60;88.10
3298;DHT22;1661;53.572;10.174;2023-10-09T04:52:36;11.60;87.90
3298;DHT22;1661;53.572;10.174;2023-10-09T04:55:16;11.70;87.90
3298;DHT22;1661;53.572;10.174;2023-10-09T04:57:46;11.70;87.70
3298;DHT22;1661;53.572;10.174;2023-10-09T05:00:27;11.70;87.40
3298;DHT22;1661;53.572;10.174;2023-10-09T05:03:07;11.70;87.30
3298;DHT22;1661;53.572;10.174;2023-10-09T05:05:38;11.70;87.30
3298;DHT22;1661;53.572;10.174;2023-10-09T05:08:26;11.80;87.30
3298;DHT22;1661;53.572;10.174;2023-10-09T05:10:55;11.80;87.10
3298;DHT22;1661;53.572;10.174;2023-10-09T05:13:32;11.80;86.80
3298;DHT22;1661;53.572;10.174;2023-10-09T05:16:09;11.80;86.70
3298;DHT22;1661;53.572;10.174;2023-10-09T05:18:44;11.90;86.70
3298;DHT22;1661;53.572;10.174;2023-10-09T05:21:13;11.80;86.50
3298;DHT22;1661;53.572;10.174;2023-10-09T05:24:01;11.80;86.40
3298;DHT22;1661;53.572;10.174;2023-10-09T05:26:45;11.70;86.50
3298;DHT22;1661;53.572;10.174;2023-10-09T05:29:19;11.60;86.60
3298;DHT22;1661;53.572;10.174;2023-10-09T05:31:45;11.60;86.80
3298;DHT22;1661;53.572;10.174;2023-10-09T05:34:22;11.70;86.80
3298;DHT22;1661;53.572;10.174;2023-10-09T05:36:48;11.70;86.70
3298;DHT22;1661;53.572;10.174;2023-10-09T05:39:16;11.70;86.70
3298;DHT22;1661;53.572;10.174;2023-10-09T05:41:45;11.60;86.80
3298;DHT22;1661;53.572;10.174;2023-10-09T05:44:17;11.60;86.80
3298;DHT22;1661;53.572;10.174;2023-10-09T05:47:04;11.60;86.90
3298;DHT22;1661;53.572;10.174;2023-10-09T05:49:44;11.60;86.80
3298;DHT22;1661;53.572;10.174;2023-10-09T05:52:27;11.60;87.00
3298;DHT22;1661;53.572;10.174;2023-10-09T05:55:28;11.50;87.10
3298;DHT22;1661;53.572;10.174;2023-10-09T05:58:13;11.40;87.50
3298;DHT22;1661;53.572;10.174;2023-10-09T06:01:00;11.40;87.60
3298;DHT22;1661;53.572;10.174;2023-10-09T06:03:44;11.40;87.70
3298;DHT22;1661;53.572;10.174;2023-10-09T06:06:21;11.30;87.70
3298;DHT22;1661;53.572;10.174;2023-10-09T06:09:08;11.30;87.90
3298;DHT22;1661;53.572;10.174;2023-10-09T06:11:54;11.30;88.10
3298;DHT22;1661;53.572;10.174;2023-10-09T06:14:38;11.30;88.10
3298;DHT22;1661;53.572;10.174;2023-10-09T06:17:24;11.30;88.30
3298;DHT22;1661;53.572;10.174;2023-10-09T06:19:50;11.30;88.40
3298;DHT22;1661;53.572;10.174;2023-10-09T06:22:24;11.30;88.40
3298;DHT22;1661;53.572;10.174;2023-10-09T06:25:11;11.40;88.50
3298;DHT22;1661;53.572;10.174;2023-10-09T06:27:40;11.40;88.60
3298;DHT22;1661;53.572;10.174;2023-10-09T06:30:22;11.40;88.60
3298;DHT22;1661;53.572;10.174;2023-10-09T06:32:53;11.40;88.70
3298;DHT22;1661;53.572;10.174;2023-10-09T06:35:45;11.40;88.90
3298;DHT22;1661;53.572;10.174;2023-10-09T06:38:19;11.40;89.00
3298;DHT22;1661;53.572;10.174;2023-10-09T06:40:49;11.40;88.90
3298;DHT22;1661;53.572;10.174;2023-10-09T06:43:35;11.40;89.10
3298;DHT22;1661;53.572;10.174;2023-10-09T06:46:15;11.40;89.30
3298;DHT22;1661;53.572;10.174;2023-10-09T06:49:09;11.40;89.30
3298;DHT22;1661;53.572;10.174;2023-10-09T06:51:54;11.30;89.50
3298;DHT22;1661;53.572;10.174;2023-10-09T06:54:39;11.40;89.50
3298;DHT22;1661;53.572;10.174;2023-10-09T06:57:05;11.40;89.70
3298;DHT22;1661;53.572;10.174;2023-10-09T07:00:03;11.30;89.80
3298;DHT22;1661;53.572;10.174;2023-10-09T07:02:56;11.30;90.00
3298;DHT22;1661;53.572;10.174;2023-10-09T07:05:23;11.30;90.10
3298;DHT22;1661;53.572;10.174;2023-10-09T07:07:57;11.30;90.10
3298;DHT22;1661;53.572;10.174;2023-10-09T07:10:42;11.30;90.10
3298;DHT22;1661;53.572;10.174;2023-10-09T07:13:09;11.30;90.10
3298;DHT22;1661;53.572;10.174;2023-10-09T07:15:42;11.20;90.30
3298;DHT22;1661;53.572;10.174;2023-10-09T07:18:26;11.30;90.60
3298;DHT22;1661;53.572;10.174;2023-10-09T07:21:13;11.30;90.60
3298;DHT22;1661;53.572;10.174;2023-10-09T07:23:43;11.30;90.60
3298;DHT22;1661;53.572;10.174;2023-10-09T07:26:15;11.30;90.70
3298;DHT22;1661;53.572;10.174;2023-10-09T07:28:48;11.30;90.90
3298;DHT22;1661;53.572;10.174;2023-10-09T07:31:20;11.40;90.90
3298;DHT22;1661;53.572;10.174;2023-10-09T07:34:05;11.30;90.90
3298;DHT22;1661;53.572;10.174;2023-10-09T07:36:53;11.40;90.90
3298;DHT22;1661;53.572;10.174;2023-10-09T07:39:22;11.40;91.00
3298;DHT22;1661;53.572;10.174;2023-10-09T07:41:49;11.50;91.00
3298;DHT22;1661;53.572;10.174;2023-10-09T07:44:27;11.40;91.20
3298;DHT22;1661;53.572;10.174;2023-10-09T07:47:05;11.40;91.40
3298;DHT22;1661;53.572;10.174;2023-10-09T07:49:43;11.30;91.60
3298;DHT22;1661;53.572;10.174;2023-10-09T07:52:15;11.40;91.70
3298;DHT22;1661;53.572;10.174;2023-10-09T07:54:42;11.40;91.80
3298;DHT22;1661;53.572;10.174;2023-10-09T07:57:16;11.40;92.00
3298;DHT22;1661;53.572;10.174;2023-10-09T07:59:42;11.40;92.10
3298;DHT22;1661;53.572;10.174;2023-10-09T08:02:21;11.40;92.20
3298;DHT22;1661;53.572;10.174;2023-10-09T08:04:57;11.40;92.30
3298;DHT22;1661;53.572;10.174;2023-10-09T08:07:29;11.40;92.60
3298;DHT22;1661;53.572;10.174;2023-10-09T08:10:04;11.50;92.60
3298;DHT22;1661;53.572;10.174;2023-10-09T08:12:48;11.60;92.40
3298;DHT22;1661;53.572;10.174;2023-10-09T08:15:25;11.60;92.20
3298;DHT22;1661;53.572;10.174;2023-10-09T08:18:01;11.60;92.10
3298;DHT22;1661;53.572;10.174;2023-10-09T08:20:36;11.60;92.10
3298;DHT22;1661;53.572;10.174;2023-10-09T08:23:36;11.60;92.00
3298;DHT22;1661;53.572;10.174;2023-10-09T08:26:15;11.50;92.10
3298;DHT22;1661;53.572;10.174;2023-10-09T08:28:54;11.50;92.30
3298;DHT22;1661;53.572;10.174;2023-10-09T08:31:41;11.50;92.50
3298;DHT22;1661;53.572;10.174;2023-10-09T08:34:23;11.50;92.80
3298;DHT22;1661;53.572;10.174;2023-10-09T08:36:51;11.50;92.80
3298;DHT22;1661;53.572;10.174;2023-10-09T08:39:20;11.50;92.90
3298;DHT22;1661;53.572;10.174;2023-10-09T08:41:52;11.60;92.80
3298;DHT22;1661;53.572;10.174;2023-10-09T08:44:20;11.70;92.70
3298;DHT22;1661;53.572;10.174;2023-10-09T08:46:50;11.70;92.50
3298;DHT22;1661;53.572;10.174;2023-10-09T08:49:19;11.70;92.50
3298;DHT22;1661;53.572;10.174;2023-10-09T08:51:48;11.70;92.40
3298;DHT22;1661;53.572;10.174;2023-10-09T08:54:15;11.70;92.60
3298;DHT22;1661;53.572;10.174;2023-10-09T08:56:42;11.70;92.60
3298;DHT22;1661;53.572;10.174;2023-10-09T08:59:15;11.80;92.70
3298;DHT22;1661;53.572;10.174;2023-10-09T09:01:44;11.80;92.50
3298;DHT22;1661;53.572;10.174;2023-10-09T09:04:36;11.80;92.60
3298;DHT22;1661;53.572;10.174;2023-10-09T09:07:05;11.80;92.70
3298;DHT22;1661;53.572;10.174;2023-10-09T09:09:33;11.90;92.50
3298;DHT22;1661;53.572;10.174;2023-10-09T09:12:00;11.90;92.40
3298;DHT22;1661;53.572;10.174;2023-10-09T09:14:37;12.00;92.30
3298;DHT22;1661;53.572;10.174;2023-10-09T09:17:05;12.00;92.20
3298;DHT22;1661;53.572;10.174;2023-10-09T09:19:37;12.10;92.00
3298;DHT22;1661;53.572;10.174;2023-10-09T09:22:05;12.20;91.90
3298;DHT22;1661;53.572;10.174;2023-10-09T09:24:39;12.30;91.80
3298;DHT22;1661;53.572;10.174;2023-10-09T09:27:11;12.30;91.70
3298;DHT22;1661;53.572;10.174;2023-10-09T09:29:44;12.30;91.60
3298;DHT22;1661;53.572;10.174;2023-10-09T09:32:27;12.40;91.50
3298;DHT22;1661;53.572;10.174;2023-10-09T09:34:56;12.40;91.50
3298;DHT22;1661;53.572;10.174;2023-10-09T09:37:28;12.50;91.30
3298;DHT22;1661;53.572;10.174;2023-10-09T09:39:58;12.50;91.30
3298;DHT22;1661;53.572;10.174;2023-10-09T09:42:27;12.60;91.30
3298;DHT22;1661;53.572;10.174;2023-10-09T09:44:59;12.70;91.30
3298;DHT22;1661;53.572;10.174;2023-10-09T09:47:27;12.70;91.20
3298;DHT22;1661;53.572;10.174;2023-10-09T09:49:55;12.70;91.10
3298;DHT22;1661;53.572;10.174;2023-10-09T09:52:28;12.80;90.90
3298;DHT22;1661;53.572;10.174;2023-10-09T09:55:04;12.80;90.70
3298;DHT22;1661;53.572;10.174;2023-10-09T09:57:33;12.90;90.80
3298;DHT22;1661;53.572;10.174;2023-10-09T10:00:08;12.90;90.80
3298;DHT22;1661;53.572;10.174;2023-10-09T10:02:54;12.90;90.90
3298;DHT22;1661;53.572;10.174;2023-10-09T10:05:25;12.90;90.80
3298;DHT22;1661;53.572;10.174;2023-10-09T10:07:57;12.80;90.90
3298;DHT22;1661;53.572;10.174;2023-10-09T10:10:36;12.80;91.10
3298;DHT22;1661;53.572;10.174;2023-10-09T10:13:13;12.80;91.40
3298;DHT22;1661;53.572;10.174;2023-10-09T10:16:00;12.90;91.50
3298;DHT22;1661;53.572;10.174;2023-10-09T10:18:52;13.00;91.60
3298;DHT22;1661;53.572;10.174;2023-10-09T10:21:20;13.00;91.70
3298;DHT22;1661;53.572;10.174;2023-10-09T10:24:00;12.90;91.50
3298;DHT22;1661;53.572;10.174;2023-10-09T10:26:32;12.90;91.50
3298;DHT22;1661;53.572;10.174;2023-10-09T10:29:17;12.90;91.60
3298;DHT22;1661;53.572;10.174;2023-10-09T10:31:55;12.90;91.90
3298;DHT22;1661;53.572;10.174;2023-10-09T10:34:23;13.00;91.90
3298;DHT22;1661;53.572;10.174;2023-10-09T10:36:51;13.10;91.70
3298;DHT22;1661;53.572;10.174;2023-10-09T10:39:25;13.10;91.70
3298;DHT22;1661;53.572;10.174;2023-10-09T10:42:06;13.10;91.60
3298;DHT22;1661;53.572;10.174;2023-10-09T10:44:35;13.10;91.80
3298;DHT22;1661;53.572;10.174;2023-10-09T10:47:04;13.10;91.80
3298;DHT22;1661;53.572;10.174;2023-10-09T10:49:43;13.10;91.80
3298;DHT22;1661;53.572;10.174;2023-10-09T10:52:20;13.10;91.90
3298;DHT22;1661;53.572;10.174;2023-10-09T10:54:49;13.10;92.10
3298;DHT22;1661;53.572;10.174;2023-10-09T10:57:29;13.10;92.10
3298;DHT22;1661;53.572;10.174;2023-10-09T11:00:19;13.20;92.00
3298;DHT22;1661;53.572;10.174;2023-10-09T11:03:06;13.30;91.90
3298;DHT22;1661;53.572;10.174;2023-10-09T11:05:44;13.30;91.70
3298;DHT22;1661;53.572;10.174;2023-10-09T11:08:16;13.30;91.70
3298;DHT22;1661;53.572;10.174;2023-10-09T11:10:49;13.30;91.60
3298;DHT22;1661;53.572;10.174;2023-10-09T11:13:25;13.40;91.50
3298;DHT22;1661;53.572;10.174;2023-10-09T11:15:56;13.40;91.50
3298;DHT22;1661;53.572;10.174;2023-10-09T11:18:41;13.40;91.50
3298;DHT22;1661;53.572;10.174;2023-10-09T11:21:13;13.50;91.30
3298;DHT22;1661;53.572;10.174;2023-10-09T11:23:59;13.50;91.40
3298;DHT22;1661;53.572;10.174;2023-10-09T11:26:49;13.50;91.50
3298;DHT22;1661;53.572;10.174;2023-10-09T11:29:21;13.50;91.50
3298;DHT22;1661;53.572;10.174;2023-10-09T11:31:58;13.50;91.60
3298;DHT22;1661;53.572;10.174;2023-10-09T11:34:25;13.60;91.50
3298;DHT22;1661;53.572;10.174;2023-10-09T11:36:59;13.60;91.30
3298;DHT22;1661;53.572;10.174;2023-10-09T11:39:27;13.60;91.20
3298;DHT22;1661;53.572;10.174;2023-10-09T11:42:19;13.60;91.00
3298;DHT22;1661;53.572;10.174;2023-10-09T11:45:01;13.60;91.00
3298;DHT22;1661;53.572;10.174;2023-10-09T11:47:45;13.60;91.00
3298;DHT22;1661;53.572;10.174;2023-10-09T11:50:19;13.60;91.20
3298;DHT22;1661;53.572;10.174;2023-10-09T11:52:58;13.60;91.20
3298;DHT22;1661;53.572;10.174;2023-10-09T11:55:35;13.70;91.30
3298;DHT22;1661;53.572;10.174;2023-10-09T11:58:04;13.80;91.30
3298;DHT22;1661;53.572;10.174;2023-10-09T12:00:32;13.80;91.20
3298;DHT22;1661;53.572;10.174;2023-10-09T12:03:10;13.90;91.10
3298;DHT22;1661;53.572;10.174;2023-10-09T12:05:38;13.90;91.10
3298;DHT22;1661;53.572;10.174;2023-10-09T12:08:09;13.90;91.10
3298;DHT22;1661;53.572;10.174;2023-10-09T12:10:36;13.90;91.20
3298;DHT22;1661;53.572;10.174;2023-10-09T12:13:06;14.00;91.40
3298;DHT22;1661;53.572;10.174;2023-10-09T12:15:33;14.00;91.60
3298;DHT22;1661;53.572;10.174;2023-10-09T12:18:07;14.00;91.90
3298;DHT22;1661;53.572;10.174;2023-10-09T12:20:40;14.00;92.10
3298;DHT22;1661;53.572;10.174;2023-10-09T12:23:08;14.10;92.30
3298;DHT22;1661;53.572;10.174;2023-10-09T12:25:40;14.10;92.20
3298;DHT22;1661;53.572;10.174;2023-10-09T12:28:12;14.10;92.00
3298;DHT22;1661;53.572;10.174;2023-10-09T12:30:40;14.10;91.70
3298;DHT22;1661;53.572;10.174;2023-10-09T12:33:07;14.00;91.50
3298;DHT22;1661;53.572;10.174;2023-10-09T12:35:38;13.90;91.60
3298;DHT22;1661;53.572;10.174;2023-10-09T12:38:05;13.90;92.00
3298;DHT22;1661;53.572;10.174;2023-10-09T12:40:34;13.90;92.00
3298;DHT22;1661;53.572;10.174;2023-10-09T12:43:02;14.00;92.00
3298;DHT22;1661;53.572;10.174;2023-10-09T12:45:33;14.10;91.80
3298;DHT22;1661;53.572;10.174;2023-10-09T12:48:01;14.20;91.60
3298;DHT22;1661;53.572;10.174;2023-10-09T12:50:34;14.20;91.40
3298;DHT22;1661;53.572;10.174;2023-10-09T12:53:07;14.30;91.20
3298;DHT22;1661;53.572;10.174;2023-10-09T12:55:36;14.40;91.00
3298;DHT22;1661;53.572;10.174;2023-10-09T12:58:06;14.40;90.60
3298;DHT22;1661;53.572;10.174;2023-10-09T13:00:35;14.50;90.50
3298;DHT22;1661;53.572;10.174;2023-10-09T13:03:05;14.50;90.50
3298;DHT22;1661;53.572;10.174;2023-10-09T13:05:45;14.60;90.50
3298;DHT22;1661;53.572;10.174;2023-10-09T13:08:20;14.60;90.40
3298;DHT22;1661;53.572;10.174;2023-10-09T13:10:48;14.60;90.40
3298;DHT22;1661;53.572;10.174;2023-10-09T13:13:27;14.70;90.50
3298;DHT22;1661;53.572;10.174;2023-10-09T13:16:10;14.70;90.30
3298;DHT22;1661;53.572;10.174;2023-10-09T13:18:46;14.70;90.30
3298;DHT22;1661;53.572;10.174;2023-10-09T13:21:17;14.80;90.50
3298;DHT22;1661;53.572;10.174;2023-10-09T13:23:44;14.80;90.50
3298;DHT22;1661;53.572;10.174;2023-10-09T13:26:13;14.80;90.50
3298;DHT22;1661;53.572;10.174;2023-10-09T13:28:45;14.80;90.60
3298;DHT22;1661;53.572;10.174;2023-10-09T13:31:14;14.80;90.50
3298;DHT22;1661;53.572;10.174;2023-10-09T13:33:41;14.90;90.50
3298;DHT22;1661;53.572;10.174;2023-10-09T13:36:09;14.90;90.70
3298;DHT22;1661;53.572;10.174;2023-10-09T13:38:43;15.00;90.70
3298;DHT22;1661;53.572;10.174;2023-10-09T13:41:10;15.00;90.70
3298;DHT22;1661;53.572;10.174;2023-10-09T13:43:38;15.10;90.70
3298;DHT22;1661;53.572;10.174;2023-10-09T13:46:08;15.20;90.60
3298;DHT22;1661;53.572;10.174;2023-10-09T13:48:37;15.20;90.50
3298;DHT22;1661;53.572;10.174;2023-10-09T13:51:07;15.30;90.30
3298;DHT22;1661;53.572;10.174;2023-10-09T13:53:40;15.30;90.30
3298;DHT22;1661;53.572;10.174;2023-10-09T13:56:10;15.30;90.10
3298;DHT22;1661;53.572;10.174;2023-10-09T13:58:40;15.30;90.00
3298;DHT22;1661;53.572;10.174;2023-10-09T14:01:08;15.30;89.80
3298;DHT22;1661;53.572;10.174;2023-10-09T14:03:36;15.30;89.70
3298;DHT22;1661;53.572;10.174;2023-10-09T14:06:04;15.30;89.90
3298;DHT22;1661;53.572;10.174;2023-10-09T14:08:38;15.30;89.90
3298;DHT22;1661;53.572;10.174;2023-10-09T14:11:07;15.30;90.00
3298;DHT22;1661;53.572;10.174;2023-10-09T14:13:39;15.40;90.00
3298;DHT22;1661;53.572;10.174;2023-10-09T14:16:05;15.40;90.00
3298;DHT22;1661;53.572;10.174;2023-10-09T14:18:32;15.50;90.00
3298;DHT22;1661;53.572;10.174;2023-10-09T14:21:02;15.50;89.70
3298;DHT22;1661;53.572;10.174;2023-10-09T14:23:41;15.50;89.70
3298;DHT22;1661;53.572;10.174;2023-10-09T14:26:12;15.50;89.60
3298;DHT22;1661;53.572;10.174;2023-10-09T14:28:39;15.50;89.50
3298;DHT22;1661;53.572;10.174;2023-10-09T14:31:08;15.50;89.50
3298;DHT22;1661;53.572;10.174;2023-10-09T14:33:37;15.50;89.50
3298;DHT22;1661;53.572;10.174;2023-10-09T14:36:07;15.40;90.00
3298;DHT22;1661;53.572;10.174;2023-10-09T14:38:34;15.30;90.10
3298;DHT22;1661;53.572;10.174;2023-10-09T14:41:06;15.30;90.30
3298;DHT22;1661;53.572;10.174;2023-10-09T14:43:37;15.20;89.90
3298;DHT22;1661;53.572;10.174;2023-10-09T14:46:03;15.20;90.60
3298;DHT22;1661;53.572;10.174;2023-10-09T14:48:36;15.30;90.70
3298;DHT22;1661;53.572;10.174;2023-10-09T14:51:04;15.30;90.70
3298;DHT22;1661;53.572;10.174;2023-10-09T14:53:33;15.40;90.70
3298;DHT22;1661;53.572;10.174;2023-10-09T14:56:01;15.40;90.70
3298;DHT22;1661;53.572;10.174;2023-10-09T14:58:29;15.40;90.60
3298;DHT22;1661;53.572;10.174;2023-10-09T15:01:06;15.50;90.50
3298;DHT22;1661;53.572;10.174;2023-10-09T15:03:35;15.50;90.50
3298;DHT22;1661;53.572;10.174;2023-10-09T15:06:03;15.50;90.30
3298;DHT22;1661;53.572;10.174;2023-10-09T15:08:35;15.60;90.30
3298;DHT22;1661;53.572;10.174;2023-10-09T15:11:01;15.60;90.30
3298;DHT22;1661;53.572;10.174;2023-10-09T15:13:28;15.60;90.30
3298;DHT22;1661;53.572;10.174;2023-10-09T15:15:56;15.60;90.30
3298;DHT22;1661;53.572;10.174;2023-10-09T15:18:22;15.70;90.30
3298;DHT22;1661;53.572;10.174;2023-10-09T15:20:51;15.70;90.20
3298;DHT22;1661;53.572;10.174;2023-10-09T15:23:18;15.70;90.10
3298;DHT22;1661;53.572;10.174;2023-10-09T15:25:46;15.70;90.20
3298;DHT22;1661;53.572;10.174;2023-10-09T15:28:15;15.70;90.30
3298;DHT22;1661;53.572;10.174;2023-10-09T15:30:42;15.70;90.20
3298;DHT22;1661;53.572;10.174;2023-10-09T15:33:09;15.70;90.20
3298;DHT22;1661;53.572;10.174;2023-10-09T15:35:36;15.70;90.20
3298;DHT22;1661;53.572;10.174;2023-10-09T15:38:05;15.70;90.20
3298;DHT22;1661;53.572;10.174;2023-10-09T15:40:33;15.70;90.30
3298;DHT22;1661;53.572;10.174;2023-10-09T15:43:02;15.70;90.30
3298;DHT22;1661;53.572;10.174;2023-10-09T15:45:30;15.80;90.20
3298;DHT22;1661;53.572;10.174;2023-10-09T15:47:57;15.80;90.10
3298;DHT22;1661;53.572;10.174;2023-10-09T15:50:27;15.80;90.10
3298;DHT22;1661;53.572;10.174;2023-10-09T15:52:55;15.80;90.10
3298;DHT22;1661;53.572;10.174;2023-10-09T15:55:22;15.80;90.20
3298;DHT22;1661;53.572;10.174;2023-10-09T15:57:50;15.80;90.10
3298;DHT22;1661;53.572;10.174;2023-10-09T16:00:21;15.80;90.20
3298;DHT22;1661;53.572;10.174;2023-10-09T16:02:54;15.80;90.00
3298;DHT22;1661;53.572;10.174;2023-10-09T16:05:21;15.80;89.90
3298;DHT22;1661;53.572;10.174;2023-10-09T16:07:51;15.80;90.00
3298;DHT22;1661;53.572;10.174;2023-10-09T16:10:19;15.80;90.10
3298;DHT22;1661;53.572;10.174;2023-10-09T16:12:46;15.80;90.10
3298;DHT22;1661;53.572;10.174;2023-10-09T16:15:13;15.80;90.10
3298;DHT22;1661;53.572;10.174;2023-10-09T16:17:41;15.80;90.20
3298;DHT22;1661;53.572;10.174;2023-10-09T16:20:10;15.80;90.30
3298;DHT22;1661;53.572;10.174;2023-10-09T16:22:40;15.80;90.30